PWSweather.com
Personal Weather Stations
Station Observations
FAUSKE
Nordland, Norway, FauskeNO 8200

Nordland, NorwayFauskeNO 8200

Lat: 67.2607586, Lon: 15.4114204

Elevation: 40

Station Type: Davis Vantage PRO2

http://www.bjornli.net/weather.html

High Low Average
Temperature 49.6°F9.8°C 42.3°F5.7°C 45.8°F7.7°C
Dew Point 45.6°F7.6°C 40.7°F4.8°C 43.9°F6.6°C
Winds 7.0 mph 11.3 kmh Calm Calm 1.0 mph ENE1.6 kmh ENE
Wind Gusts 14.0 mph22.5 kmh -- 2.0 mph3.2 kmh
Humidity 100% 80% 93%
Pressure 29.60 in1002.4 mb 29.31 in992.6 mb -
Precipitation 0.00 in0.0 mm - -
Hour Temp Dew Point Humidity Winds Wind Gusts Pressure Precip Precip Rate Daily Precip Total
12:00 AM 43.1°F6.2°C 41.5°F5.3°C 94% Calm Calm -- 29.60 in1002.4 mb 0.00 in0.0 mm 0.00 in0.0 mm 0.00 in0.0 mm
12:10 AM 42.9°F6.1°C 41.3°F5.2°C 94% Calm Calm -- 29.60 in1002.4 mb 0.00 in0.0 mm 0.00 in0.0 mm 0.00 in0.0 mm
12:30 AM 42.6°F5.9°C 41.0°F5.0°C 94% Calm Calm -- 29.59 in1002.0 mb 0.00 in0.0 mm 0.00 in0.0 mm 0.00 in0.0 mm
12:40 AM 42.7°F5.9°C 41.1°F5.1°C 94% 3.0 mph N4.8 kmh N 4.0 mph6.4 kmh 29.59 in1002.0 mb 0.00 in0.0 mm 0.00 in0.0 mm 0.00 in0.0 mm
01:00 AM 43.2°F6.2°C 41.6°F5.3°C 94% Calm Calm -- 29.59 in1002.0 mb 0.00 in0.0 mm 0.00 in0.0 mm 0.00 in0.0 mm
01:10 AM 42.9°F6.1°C 41.3°F5.2°C 94% Calm Calm -- 29.58 in1001.7 mb 0.00 in0.0 mm 0.00 in0.0 mm 0.00 in0.0 mm
01:30 AM 42.4°F5.8°C 40.8°F4.9°C 94% Calm Calm -- 29.58 in1001.7 mb 0.00 in0.0 mm 0.00 in0.0 mm 0.00 in0.0 mm
01:40 AM 42.3°F5.7°C 40.7°F4.8°C 94% Calm Calm -- 29.58 in1001.7 mb 0.00 in0.0 mm 0.00 in0.0 mm 0.00 in0.0 mm
02:00 AM 42.7°F5.9°C 41.4°F5.2°C 95% Calm Calm -- 29.57 in1001.4 mb 0.00 in0.0 mm 0.00 in0.0 mm 0.00 in0.0 mm
02:10 AM 42.8°F6.0°C 41.2°F5.1°C 94% Calm Calm -- 29.57 in1001.4 mb 0.00 in0.0 mm 0.00 in0.0 mm 0.00 in0.0 mm
02:30 AM 42.7°F5.9°C 41.4°F5.2°C 95% Calm Calm -- 29.56 in1001.0 mb 0.00 in0.0 mm 0.00 in0.0 mm 0.00 in0.0 mm
02:40 AM 42.8°F6.0°C 41.5°F5.3°C 95% Calm Calm -- 29.56 in1001.0 mb 0.00 in0.0 mm 0.00 in0.0 mm 0.00 in0.0 mm
03:00 AM 42.4°F5.8°C 41.1°F5.1°C 95% Calm Calm -- 29.55 in1000.7 mb 0.00 in0.0 mm 0.00 in0.0 mm 0.00 in0.0 mm
03:09 AM 42.4°F5.8°C 41.1°F5.1°C 95% Calm Calm -- 29.55 in1000.7 mb 0.00 in0.0 mm 0.00 in0.0 mm 0.00 in0.0 mm
03:30 AM 42.8°F6.0°C 41.5°F5.3°C 95% Calm Calm -- 29.55 in1000.7 mb 0.00 in0.0 mm 0.00 in0.0 mm 0.00 in0.0 mm
03:40 AM 42.9°F6.1°C 41.6°F5.3°C 95% Calm Calm -- 29.55 in1000.7 mb 0.00 in0.0 mm 0.00 in0.0 mm 0.00 in0.0 mm
04:00 AM 42.9°F6.1°C 41.6°F5.3°C 95% Calm Calm -- 29.55 in1000.7 mb 0.00 in0.0 mm 0.00 in0.0 mm 0.00 in0.0 mm
04:09 AM 42.9°F6.1°C 41.6°F5.3°C 95% Calm Calm -- 29.54 in1000.3 mb 0.00 in0.0 mm 0.00 in0.0 mm 0.00 in0.0 mm
04:30 AM 43.5°F6.4°C 42.2°F5.7°C 95% Calm Calm -- 29.53 in1000.0 mb 0.00 in0.0 mm 0.00 in0.0 mm 0.00 in0.0 mm
04:40 AM 43.9°F6.6°C 42.6°F5.9°C 95% Calm Calm 6.0 mph9.7 kmh 29.53 in1000.0 mb 0.00 in0.0 mm 0.00 in0.0 mm 0.00 in0.0 mm
05:00 AM 44.3°F6.8°C 42.7°F5.9°C 94% Calm Calm -- 29.52 in999.7 mb 0.00 in0.0 mm 0.00 in0.0 mm 0.00 in0.0 mm
05:10 AM 44.3°F6.8°C 42.7°F5.9°C 94% Calm Calm -- 29.52 in999.7 mb 0.00 in0.0 mm 0.00 in0.0 mm 0.00 in0.0 mm
05:30 AM 44.1°F6.7°C 42.5°F5.8°C 94% Calm Calm -- 29.52 in999.7 mb 0.00 in0.0 mm 0.00 in0.0 mm 0.00 in0.0 mm
05:40 AM 44.1°F6.7°C 42.5°F5.8°C 94% Calm Calm -- 29.51 in999.3 mb 0.00 in0.0 mm 0.00 in0.0 mm 0.00 in0.0 mm
06:00 AM 43.9°F6.6°C 42.3°F5.7°C 94% Calm Calm -- 29.51 in999.3 mb 0.00 in0.0 mm 0.00 in0.0 mm 0.00 in0.0 mm
06:09 AM 44.0°F6.7°C 42.4°F5.8°C 94% Calm Calm -- 29.50 in999.0 mb 0.00 in0.0 mm 0.00 in0.0 mm 0.00 in0.0 mm
06:30 AM 44.4°F6.9°C 42.8°F6.0°C 94% Calm Calm -- 29.50 in999.0 mb 0.00 in0.0 mm 0.00 in0.0 mm 0.00 in0.0 mm
06:40 AM 44.6°F7.0°C 43.0°F6.1°C 94% Calm Calm 3.0 mph4.8 kmh 29.50 in999.0 mb 0.00 in0.0 mm 0.00 in0.0 mm 0.00 in0.0 mm
07:00 AM 45.0°F7.2°C 43.4°F6.3°C 94% Calm Calm -- 29.50 in999.0 mb 0.00 in0.0 mm 0.00 in0.0 mm 0.00 in0.0 mm
07:09 AM 45.3°F7.4°C 43.7°F6.5°C 94% Calm Calm 2.0 mph3.2 kmh 29.50 in999.0 mb 0.00 in0.0 mm 0.00 in0.0 mm 0.00 in0.0 mm
07:30 AM 46.2°F7.9°C 44.6°F7.0°C 94% 4.0 mph NNE6.4 kmh NNE 4.0 mph6.4 kmh 29.50 in999.0 mb 0.00 in0.0 mm 0.00 in0.0 mm 0.00 in0.0 mm
07:40 AM 46.7°F8.2°C 45.1°F7.3°C 94% 4.0 mph NE6.4 kmh NE 7.0 mph11.3 kmh 29.50 in999.0 mb 0.01 in0.3 mm 0.06 in1.5 mm 0.01 in0.3 mm
08:00 AM 48.7°F9.3°C 45.6°F7.6°C 89% 1.0 mph SE1.6 kmh SE 2.0 mph3.2 kmh 29.50 in999.0 mb 0.01 in0.3 mm 0.00 in0.0 mm 0.01 in0.3 mm
08:10 AM 49.3°F9.6°C 45.3°F7.4°C 86% 6.0 mph SE9.7 kmh SE 12.0 mph19.3 kmh 29.50 in999.0 mb 0.01 in0.3 mm 0.00 in0.0 mm 0.01 in0.3 mm
08:30 AM 49.6°F9.8°C 43.7°F6.5°C 80% 7.0 mph ESE11.3 kmh ESE 7.0 mph11.3 kmh 29.50 in999.0 mb 0.01 in0.3 mm 0.00 in0.0 mm 0.01 in0.3 mm
08:40 AM 49.0°F9.4°C 43.4°F6.3°C 81% 5.0 mph SE8.0 kmh SE 14.0 mph22.5 kmh 29.50 in999.0 mb 0.01 in0.3 mm 0.00 in0.0 mm 0.01 in0.3 mm
09:00 AM 48.6°F9.2°C 43.4°F6.3°C 82% 4.0 mph ESE6.4 kmh ESE 5.0 mph8.0 kmh 29.49 in998.6 mb 0.00 in0.0 mm 0.00 in0.0 mm 0.01 in0.3 mm
09:09 AM 48.6°F9.2°C 43.7°F6.5°C 83% 1.0 mph ESE1.6 kmh ESE 9.0 mph14.5 kmh 29.48 in998.3 mb 0.00 in0.0 mm 0.00 in0.0 mm 0.01 in0.3 mm
09:30 AM 48.2°F9.0°C 43.9°F6.6°C 85% Calm Calm -- 29.47 in998.0 mb 0.01 in0.3 mm 0.03 in0.8 mm 0.02 in0.5 mm
09:40 AM 48.3°F9.1°C 44.6°F7.0°C 87% Calm Calm -- 29.47 in998.0 mb 0.01 in0.3 mm 0.00 in0.0 mm 0.02 in0.5 mm
10:00 AM 47.9°F8.8°C 44.5°F6.9°C 88% Calm Calm -- 29.46 in997.6 mb 0.02 in0.5 mm 0.02 in0.5 mm 0.03 in0.8 mm
10:10 AM 48.0°F8.9°C 44.9°F7.2°C 89% Calm Calm 3.0 mph4.8 kmh 29.46 in997.6 mb 0.02 in0.5 mm 0.00 in0.0 mm 0.03 in0.8 mm
10:30 AM 48.0°F8.9°C 45.2°F7.3°C 90% Calm Calm -- 29.45 in997.3 mb 0.02 in0.5 mm 0.00 in0.0 mm 0.03 in0.8 mm
10:40 AM 48.0°F8.9°C 45.2°F7.3°C 90% 7.0 mph NE11.3 kmh NE 7.0 mph11.3 kmh 29.44 in997.0 mb 0.02 in0.5 mm 0.00 in0.0 mm 0.03 in0.8 mm
11:00 AM 47.7°F8.7°C 44.9°F7.2°C 90% Calm Calm -- 29.43 in996.6 mb 0.02 in0.5 mm 0.00 in0.0 mm 0.03 in0.8 mm
11:10 AM 47.8°F8.8°C 45.3°F7.4°C 91% 1.0 mph NE1.6 kmh NE 7.0 mph11.3 kmh 29.42 in996.3 mb 0.02 in0.5 mm 0.00 in0.0 mm 0.03 in0.8 mm
11:30 AM 48.0°F8.9°C 45.5°F7.5°C 91% Calm Calm -- 29.41 in995.9 mb 0.02 in0.5 mm 0.00 in0.0 mm 0.03 in0.8 mm
11:40 AM 48.0°F8.9°C 45.5°F7.5°C 91% Calm Calm 8.0 mph12.9 kmh 29.40 in995.6 mb 0.02 in0.5 mm 0.00 in0.0 mm 0.03 in0.8 mm
12:00 PM 47.9°F8.8°C 45.4°F7.4°C 91% Calm Calm 5.0 mph8.0 kmh 29.39 in995.3 mb 0.02 in0.5 mm 0.00 in0.0 mm 0.03 in0.8 mm
12:10 PM 47.9°F8.8°C 45.4°F7.4°C 91% 5.0 mph NE8.0 kmh NE 9.0 mph14.5 kmh 29.39 in995.3 mb 0.02 in0.5 mm 0.00 in0.0 mm 0.03 in0.8 mm
12:30 PM 47.9°F8.8°C 45.1°F7.3°C 90% 6.0 mph NE9.7 kmh NE 6.0 mph9.7 kmh 29.38 in994.9 mb 0.01 in0.3 mm 0.00 in0.0 mm 0.03 in0.8 mm
12:40 PM 47.8°F8.8°C 45.0°F7.2°C 90% 4.0 mph NE6.4 kmh NE 9.0 mph14.5 kmh 29.38 in994.9 mb 0.02 in0.5 mm 0.06 in1.5 mm 0.04 in1.0 mm
01:00 PM 47.5°F8.6°C 45.0°F7.2°C 91% Calm Calm 1.0 mph1.6 kmh 29.37 in994.6 mb 0.03 in0.8 mm 0.02 in0.5 mm 0.05 in1.3 mm
01:10 PM 47.5°F8.6°C 45.0°F7.2°C 91% 5.0 mph NE8.0 kmh NE 9.0 mph14.5 kmh 29.37 in994.6 mb 0.03 in0.8 mm 0.00 in0.0 mm 0.05 in1.3 mm
01:30 PM 47.2°F8.4°C 44.7°F7.1°C 91% 7.0 mph N11.3 kmh N 7.0 mph11.3 kmh 29.36 in994.2 mb 0.05 in1.3 mm 0.06 in1.5 mm 0.07 in1.8 mm
01:40 PM 47.1°F8.4°C 44.6°F7.0°C 91% 5.0 mph NE8.0 kmh NE 10.0 mph16.1 kmh 29.36 in994.2 mb 0.06 in1.5 mm 0.06 in1.5 mm 0.08 in2.0 mm
02:00 PM 46.9°F8.3°C 44.7°F7.1°C 92% Calm Calm 2.0 mph3.2 kmh 29.36 in994.2 mb 0.06 in1.5 mm 0.00 in0.0 mm 0.08 in2.0 mm
02:10 PM 46.9°F8.3°C 44.7°F7.1°C 92% 2.0 mph NE3.2 kmh NE 7.0 mph11.3 kmh 29.36 in994.2 mb 0.07 in1.8 mm 0.06 in1.5 mm 0.09 in2.3 mm
02:30 PM 46.9°F8.3°C 44.7°F7.1°C 92% 5.0 mph NE8.0 kmh NE 5.0 mph8.0 kmh 29.36 in994.2 mb 0.06 in1.5 mm 0.00 in0.0 mm 0.09 in2.3 mm
02:40 PM 46.8°F8.2°C 44.6°F7.0°C 92% Calm Calm 8.0 mph12.9 kmh 29.35 in993.9 mb 0.08 in2.0 mm 0.12 in3.0 mm 0.11 in2.8 mm
03:00 PM 46.7°F8.2°C 44.5°F6.9°C 92% Calm Calm 4.0 mph6.4 kmh 29.35 in993.9 mb 0.06 in1.5 mm 0.00 in0.0 mm 0.11 in2.8 mm
03:09 PM 46.7°F8.2°C 44.8°F7.1°C 93% Calm Calm 5.0 mph8.0 kmh 29.35 in993.9 mb 0.07 in1.8 mm 0.07 in1.8 mm 0.12 in3.0 mm
03:30 PM 46.6°F8.1°C 44.7°F7.1°C 93% 2.0 mph NNE3.2 kmh NNE 10.0 mph16.1 kmh 29.33 in993.2 mb 0.09 in2.3 mm 0.06 in1.5 mm 0.14 in3.6 mm
03:40 PM 46.6°F8.1°C 44.7°F7.1°C 93% 2.0 mph NE3.2 kmh NE 8.0 mph12.9 kmh 29.33 in993.2 mb 0.06 in1.5 mm 0.00 in0.0 mm 0.14 in3.6 mm
04:00 PM 46.7°F8.2°C 44.8°F7.1°C 93% Calm Calm -- 29.33 in993.2 mb 0.05 in1.3 mm 0.00 in0.0 mm 0.14 in3.6 mm
04:10 PM 46.7°F8.2°C 44.8°F7.1°C 93% Calm Calm 5.0 mph8.0 kmh 29.33 in993.2 mb 0.06 in1.5 mm 0.06 in1.5 mm 0.15 in3.8 mm
04:30 PM 46.8°F8.2°C 44.9°F7.2°C 93% Calm Calm -- 29.33 in993.2 mb 0.04 in1.0 mm 0.00 in0.0 mm 0.15 in3.8 mm
04:40 PM 46.9°F8.3°C 45.0°F7.2°C 93% Calm Calm 6.0 mph9.7 kmh 29.32 in992.9 mb 0.04 in1.0 mm 0.00 in0.0 mm 0.15 in3.8 mm
05:00 PM 46.9°F8.3°C 45.0°F7.2°C 93% Calm Calm -- 29.32 in992.9 mb 0.02 in0.5 mm 0.00 in0.0 mm 0.15 in3.8 mm
05:10 PM 47.0°F8.3°C 45.1°F7.3°C 93% Calm Calm 6.0 mph9.7 kmh 29.32 in992.9 mb 0.02 in0.5 mm 0.00 in0.0 mm 0.15 in3.8 mm
05:30 PM 47.0°F8.3°C 45.1°F7.3°C 93% Calm Calm -- 29.32 in992.9 mb 0.00 in0.0 mm 0.00 in0.0 mm 0.15 in3.8 mm
05:40 PM 46.8°F8.2°C 44.9°F7.2°C 93% Calm Calm -- 29.31 in992.6 mb 0.00 in0.0 mm 0.00 in0.0 mm 0.15 in3.8 mm
06:00 PM 46.7°F8.2°C 45.1°F7.3°C 94% Calm Calm -- 29.31 in992.6 mb 0.00 in0.0 mm 0.00 in0.0 mm 0.15 in3.8 mm
06:10 PM 46.8°F8.2°C 45.2°F7.3°C 94% Calm Calm -- 29.31 in992.6 mb 0.00 in0.0 mm 0.00 in0.0 mm 0.15 in3.8 mm
06:30 PM 46.6°F8.1°C 45.0°F7.2°C 94% Calm Calm -- 29.31 in992.6 mb 0.00 in0.0 mm 0.00 in0.0 mm 0.15 in3.8 mm
06:40 PM 46.6°F8.1°C 45.0°F7.2°C 94% Calm Calm -- 29.31 in992.6 mb 0.00 in0.0 mm 0.00 in0.0 mm 0.15 in3.8 mm
07:00 PM 46.4°F8.0°C 45.1°F7.3°C 95% Calm Calm -- 29.31 in992.6 mb 0.00 in0.0 mm 0.00 in0.0 mm 0.15 in3.8 mm
07:09 PM 46.3°F7.9°C 45.0°F7.2°C 95% Calm Calm -- 29.31 in992.6 mb 0.00 in0.0 mm 0.00 in0.0 mm 0.15 in3.8 mm
07:30 PM 46.3°F7.9°C 45.0°F7.2°C 95% Calm Calm -- 29.31 in992.6 mb 0.00 in0.0 mm 0.00 in0.0 mm 0.15 in3.8 mm
07:40 PM 46.1°F7.8°C 44.8°F7.1°C 95% Calm Calm -- 29.31 in992.6 mb 0.00 in0.0 mm 0.00 in0.0 mm 0.15 in3.8 mm
08:00 PM 46.0°F7.8°C 44.7°F7.1°C 95% Calm Calm -- 29.31 in992.6 mb 0.00 in0.0 mm 0.00 in0.0 mm 0.15 in3.8 mm
08:09 PM 46.0°F7.8°C 44.7°F7.1°C 95% Calm Calm -- 29.31 in992.6 mb 0.00 in0.0 mm 0.00 in0.0 mm 0.15 in3.8 mm
08:30 PM 45.9°F7.7°C 44.6°F7.0°C 95% Calm Calm -- 29.31 in992.6 mb 0.00 in0.0 mm 0.00 in0.0 mm 0.15 in3.8 mm
08:40 PM 45.9°F7.7°C 44.6°F7.0°C 95% Calm Calm -- 29.31 in992.6 mb 0.00 in0.0 mm 0.00 in0.0 mm 0.15 in3.8 mm
09:00 PM 45.9°F7.7°C 44.8°F7.1°C 96% Calm Calm -- 29.31 in992.6 mb 0.01 in0.3 mm 0.02 in0.5 mm 0.16 in4.1 mm
09:09 PM 45.9°F7.7°C 44.8°F7.1°C 96% Calm Calm -- 29.31 in992.6 mb 0.01 in0.3 mm 0.00 in0.0 mm 0.16 in4.1 mm
09:30 PM 45.9°F7.7°C 44.8°F7.1°C 96% Calm Calm -- 29.32 in992.9 mb 0.01 in0.3 mm 0.00 in0.0 mm 0.16 in4.1 mm
09:40 PM 45.8°F7.7°C 44.7°F7.1°C 96% Calm Calm -- 29.32 in992.9 mb 0.01 in0.3 mm 0.00 in0.0 mm 0.16 in4.1 mm
10:00 PM 45.7°F7.6°C 44.6°F7.0°C 96% Calm Calm -- 29.32 in992.9 mb 0.00 in0.0 mm 0.00 in0.0 mm 0.16 in4.1 mm
10:10 PM 45.6°F7.6°C 44.5°F6.9°C 96% Calm Calm -- 29.32 in992.9 mb 0.00 in0.0 mm 0.00 in0.0 mm 0.16 in4.1 mm
10:30 PM 45.5°F7.5°C 44.4°F6.9°C 96% Calm Calm -- 29.32 in992.9 mb 0.00 in0.0 mm 0.00 in0.0 mm 0.16 in4.1 mm
10:40 PM 45.5°F7.5°C 44.4°F6.9°C 96% Calm Calm -- 29.32 in992.9 mb 0.00 in0.0 mm 0.00 in0.0 mm 0.16 in4.1 mm
11:00 PM 45.4°F7.4°C 44.3°F6.8°C 96% Calm Calm -- 29.32 in992.9 mb 0.01 in0.3 mm 0.02 in0.5 mm 0.17 in4.3 mm
11:10 PM 45.4°F7.4°C 45.4°F7.4°C 100% Calm Calm -- 29.32 in992.9 mb 0.02 in0.5 mm 0.06 in1.5 mm 0.18 in4.6 mm
11:30 PM 45.3°F7.4°C 44.2°F6.8°C 96% Calm Calm -- 29.32 in992.9 mb 0.06 in1.5 mm 0.12 in3.0 mm 0.22 in5.6 mm
11:40 PM 45.2°F7.3°C 44.1°F6.7°C 96% Calm Calm -- 29.32 in992.9 mb 0.06 in1.5 mm 0.00 in0.0 mm 0.22 in5.6 mm